KTUS/TUS METAR and TAF weather

Enter ICAO airport designator
Station Type Date Time Source
KTUS METAR 2020/01/28 04:53 UTC NOAA

KTUS 280453Z 00000KT 10SM CLR 10/M01 A3016 RMK AO2 SLP194 T01001006


Station Type Date Time Source
KTUS Decoded METAR 2020/01/28 04:53 UTC NOAA

TUCSON INTERNATIONAL AIRPORT , AZ, United States (KTUS) 32-08N 110-57W 786M
Jan 27, 2020 - 11:53 PM EST / 2020.01.28 0453 UTC
Wind: Calm:0
Visibility: 10 mile(s):0
Sky conditions: clear
Temperature: 50.0 F (10.0 C)
Dew Point: 30.9 F (-0.6 C)
Relative Humidity: 47%
Pressure (altimeter): 30.16 in. Hg (1021 hPa)
ob: KTUS 280453Z 00000KT 10SM CLR 10/M01 A3016 RMK AO2 SLP194 T01001006
cycle: 5

Station Type Date Time Source
KTUS TAF 2020/01/27 18:22 UTC NOAA

TAF KTUS 271720Z 2718/2818 28005KT P6SM SKC
FM272100 31011G18KT P6SM SKC
FM280100 27006KT P6SM SKC
FM280700 15006KT P6SM SKC

Example: see airport list